Terminal Aerodrome Forecast
Issued by NWS Louisville, KY

Home | Current Version | Previous Version | Text Only | Print | Product List | Glossary On
Versions: 1 2 3 4 5 6 7 8 9 10 11 12 13 14 15 16
290
FTUS43 KLMK 230520
TAFBWG
TAF
KBWG 230520Z 2306/2406 VRB03KT P6SM BKN110
     FM230700 VRB03KT 4SM BR SCT250
      TEMPO 2309/2313 1 1/2SM BR
     FM231300 18005KT P6SM SCT050=

USA.gov is the U.S. government's official web portal to all federal, state and local government web resources and services.